sensor_id;sensor_type;location;lat;lon;timestamp;P1;durP1;ratioP1;P2;durP2;ratioP2
12163;SDS011;6145;50.192;10.064;2023-08-06T00:01:25;4.43;;;2.50;;
12163;SDS011;6145;50.192;10.064;2023-08-06T00:03:53;2.43;;;2.27;;
12163;SDS011;6145;50.192;10.064;2023-08-06T00:06:20;2.67;;;2.40;;
12163;SDS011;6145;50.192;10.064;2023-08-06T00:08:47;3.90;;;2.30;;
12163;SDS011;6145;50.192;10.064;2023-08-06T00:11:17;4.07;;;2.33;;
12163;SDS011;6145;50.192;10.064;2023-08-06T00:13:44;2.67;;;2.47;;
12163;SDS011;6145;50.192;10.064;2023-08-06T00:16:11;3.07;;;2.87;;
12163;SDS011;6145;50.192;10.064;2023-08-06T00:18:39;3.17;;;2.60;;
12163;SDS011;6145;50.192;10.064;2023-08-06T00:21:07;2.30;;;2.10;;
12163;SDS011;6145;50.192;10.064;2023-08-06T00:23:34;2.97;;;2.50;;
12163;SDS011;6145;50.192;10.064;2023-08-06T00:26:01;3.00;;;2.70;;
12163;SDS011;6145;50.192;10.064;2023-08-06T00:28:28;3.03;;;2.30;;
12163;SDS011;6145;50.192;10.064;2023-08-06T00:30:55;2.63;;;2.43;;
12163;SDS011;6145;50.192;10.064;2023-08-06T00:33:22;2.50;;;2.30;;
12163;SDS011;6145;50.192;10.064;2023-08-06T00:35:52;3.17;;;2.80;;
12163;SDS011;6145;50.192;10.064;2023-08-06T00:38:20;2.87;;;2.30;;
12163;SDS011;6145;50.192;10.064;2023-08-06T00:40:47;3.10;;;2.10;;
12163;SDS011;6145;50.192;10.064;2023-08-06T00:43:14;2.07;;;1.97;;
12163;SDS011;6145;50.192;10.064;2023-08-06T00:45:41;3.50;;;2.43;;
12163;SDS011;6145;50.192;10.064;2023-08-06T00:48:08;4.47;;;2.80;;
12163;SDS011;6145;50.192;10.064;2023-08-06T00:50:35;2.87;;;2.60;;
12163;SDS011;6145;50.192;10.064;2023-08-06T00:53:02;3.57;;;3.27;;
12163;SDS011;6145;50.192;10.064;2023-08-06T00:55:31;2.83;;;2.63;;
12163;SDS011;6145;50.192;10.064;2023-08-06T00:57:58;3.47;;;2.47;;
12163;SDS011;6145;50.192;10.064;2023-08-06T01:00:28;2.53;;;2.30;;
12163;SDS011;6145;50.192;10.064;2023-08-06T01:02:56;2.60;;;2.40;;
12163;SDS011;6145;50.192;10.064;2023-08-06T01:05:23;3.07;;;2.40;;
12163;SDS011;6145;50.192;10.064;2023-08-06T01:07:57;3.17;;;2.87;;
12163;SDS011;6145;50.192;10.064;2023-08-06T01:10:44;2.50;;;2.30;;
12163;SDS011;6145;50.192;10.064;2023-08-06T01:13:19;2.10;;;2.00;;
12163;SDS011;6145;50.192;10.064;2023-08-06T01:15:51;2.93;;;2.73;;
12163;SDS011;6145;50.192;10.064;2023-08-06T01:18:22;2.57;;;2.37;;
12163;SDS011;6145;50.192;10.064;2023-08-06T01:20:50;2.60;;;2.40;;
12163;SDS011;6145;50.192;10.064;2023-08-06T01:23:17;6.53;;;2.87;;
12163;SDS011;6145;50.192;10.064;2023-08-06T01:25:46;3.30;;;2.40;;
12163;SDS011;6145;50.192;10.064;2023-08-06T01:28:27;3.00;;;2.70;;
12163;SDS011;6145;50.192;10.064;2023-08-06T01:31:01;3.17;;;2.70;;
12163;SDS011;6145;50.192;10.064;2023-08-06T01:33:32;3.63;;;2.50;;
12163;SDS011;6145;50.192;10.064;2023-08-06T01:36:02;2.67;;;2.47;;
12163;SDS011;6145;50.192;10.064;2023-08-06T01:38:33;2.73;;;2.30;;
12163;SDS011;6145;50.192;10.064;2023-08-06T01:41:00;2.63;;;2.43;;
12163;SDS011;6145;50.192;10.064;2023-08-06T01:43:27;2.97;;;2.67;;
12163;SDS011;6145;50.192;10.064;2023-08-06T01:45:54;2.50;;;2.30;;
12163;SDS011;6145;50.192;10.064;2023-08-06T01:48:21;2.67;;;2.47;;
12163;SDS011;6145;50.192;10.064;2023-08-06T01:50:48;5.47;;;2.87;;
12163;SDS011;6145;50.192;10.064;2023-08-06T01:53:16;4.73;;;2.80;;
12163;SDS011;6145;50.192;10.064;2023-08-06T01:55:47;2.67;;;2.47;;
12163;SDS011;6145;50.192;10.064;2023-08-06T01:58:16;5.00;;;2.30;;
12163;SDS011;6145;50.192;10.064;2023-08-06T02:00:45;3.60;;;3.00;;
12163;SDS011;6145;50.192;10.064;2023-08-06T02:03:12;2.40;;;2.30;;
12163;SDS011;6145;50.192;10.064;2023-08-06T02:05:41;3.10;;;2.87;;
12163;SDS011;6145;50.192;10.064;2023-08-06T02:08:08;2.60;;;2.40;;
12163;SDS011;6145;50.192;10.064;2023-08-06T02:10:37;2.90;;;2.67;;
12163;SDS011;6145;50.192;10.064;2023-08-06T02:13:05;2.60;;;2.40;;
12163;SDS011;6145;50.192;10.064;2023-08-06T02:15:32;3.50;;;2.53;;
12163;SDS011;6145;50.192;10.064;2023-08-06T02:17:58;2.60;;;2.40;;
12163;SDS011;6145;50.192;10.064;2023-08-06T02:20:25;2.43;;;2.23;;
12163;SDS011;6145;50.192;10.064;2023-08-06T02:22:55;3.00;;;2.80;;
12163;SDS011;6145;50.192;10.064;2023-08-06T02:25:22;7.13;;;3.17;;
12163;SDS011;6145;50.192;10.064;2023-08-06T02:27:52;3.60;;;3.30;;
12163;SDS011;6145;50.192;10.064;2023-08-06T02:30:19;3.53;;;3.17;;
12163;SDS011;6145;50.192;10.064;2023-08-06T02:32:47;3.43;;;3.03;;
12163;SDS011;6145;50.192;10.064;2023-08-06T02:35:22;3.43;;;3.13;;
12163;SDS011;6145;50.192;10.064;2023-08-06T02:37:49;3.00;;;2.77;;
12163;SDS011;6145;50.192;10.064;2023-08-06T02:40:15;4.77;;;3.40;;
12163;SDS011;6145;50.192;10.064;2023-08-06T02:42:42;2.77;;;2.57;;
12163;SDS011;6145;50.192;10.064;2023-08-06T02:45:11;2.43;;;2.30;;
12163;SDS011;6145;50.192;10.064;2023-08-06T02:47:41;2.83;;;2.57;;
12163;SDS011;6145;50.192;10.064;2023-08-06T02:50:08;3.57;;;3.27;;
12163;SDS011;6145;50.192;10.064;2023-08-06T02:52:35;8.73;;;3.50;;
12163;SDS011;6145;50.192;10.064;2023-08-06T02:55:04;3.40;;;2.83;;
12163;SDS011;6145;50.192;10.064;2023-08-06T02:57:31;7.17;;;3.27;;
12163;SDS011;6145;50.192;10.064;2023-08-06T02:59:58;4.77;;;3.40;;
12163;SDS011;6145;50.192;10.064;2023-08-06T03:02:26;3.00;;;2.57;;
12163;SDS011;6145;50.192;10.064;2023-08-06T03:04:53;2.83;;;2.60;;
12163;SDS011;6145;50.192;10.064;2023-08-06T03:07:20;4.03;;;2.50;;
12163;SDS011;6145;50.192;10.064;2023-08-06T03:09:47;2.97;;;2.77;;
12163;SDS011;6145;50.192;10.064;2023-08-06T03:12:14;3.10;;;2.90;;
12163;SDS011;6145;50.192;10.064;2023-08-06T03:14:41;3.80;;;2.57;;
12163;SDS011;6145;50.192;10.064;2023-08-06T03:17:09;3.90;;;3.10;;
12163;SDS011;6145;50.192;10.064;2023-08-06T03:19:37;3.20;;;2.43;;
12163;SDS011;6145;50.192;10.064;2023-08-06T03:22:04;2.90;;;2.70;;
12163;SDS011;6145;50.192;10.064;2023-08-06T03:24:34;3.20;;;2.97;;
12163;SDS011;6145;50.192;10.064;2023-08-06T03:27:01;2.70;;;2.23;;
12163;SDS011;6145;50.192;10.064;2023-08-06T03:29:29;4.00;;;2.50;;
12163;SDS011;6145;50.192;10.064;2023-08-06T03:31:55;6.10;;;2.83;;
12163;SDS011;6145;50.192;10.064;2023-08-06T03:34:22;3.53;;;2.87;;
12163;SDS011;6145;50.192;10.064;2023-08-06T03:36:55;8.47;;;3.40;;
12163;SDS011;6145;50.192;10.064;2023-08-06T03:39:22;3.13;;;2.93;;
12163;SDS011;6145;50.192;10.064;2023-08-06T03:41:49;3.93;;;2.60;;
12163;SDS011;6145;50.192;10.064;2023-08-06T03:44:16;3.10;;;2.80;;
12163;SDS011;6145;50.192;10.064;2023-08-06T03:46:43;3.17;;;2.87;;
12163;SDS011;6145;50.192;10.064;2023-08-06T03:49:13;4.00;;;3.60;;
12163;SDS011;6145;50.192;10.064;2023-08-06T03:51:40;4.40;;;3.10;;
12163;SDS011;6145;50.192;10.064;2023-08-06T03:54:08;3.70;;;2.93;;
12163;SDS011;6145;50.192;10.064;2023-08-06T03:56:37;3.70;;;3.30;;
12163;SDS011;6145;50.192;10.064;2023-08-06T03:59:04;3.60;;;2.80;;
12163;SDS011;6145;50.192;10.064;2023-08-06T04:01:31;4.43;;;3.23;;
12163;SDS011;6145;50.192;10.064;2023-08-06T04:03:58;4.77;;;3.83;;
12163;SDS011;6145;50.192;10.064;2023-08-06T04:06:25;7.03;;;4.10;;
12163;SDS011;6145;50.192;10.064;2023-08-06T04:08:52;4.57;;;4.17;;
12163;SDS011;6145;50.192;10.064;2023-08-06T04:11:21;6.00;;;4.30;;
12163;SDS011;6145;50.192;10.064;2023-08-06T04:13:48;5.63;;;5.13;;
12163;SDS011;6145;50.192;10.064;2023-08-06T04:16:14;5.13;;;4.73;;
12163;SDS011;6145;50.192;10.064;2023-08-06T04:18:44;3.67;;;3.23;;
12163;SDS011;6145;50.192;10.064;2023-08-06T04:21:11;3.90;;;3.60;;
12163;SDS011;6145;50.192;10.064;2023-08-06T04:23:38;5.33;;;3.10;;
12163;SDS011;6145;50.192;10.064;2023-08-06T04:26:05;4.63;;;3.03;;
12163;SDS011;6145;50.192;10.064;2023-08-06T04:28:34;3.70;;;3.40;;
12163;SDS011;6145;50.192;10.064;2023-08-06T04:31:01;4.30;;;3.90;;
12163;SDS011;6145;50.192;10.064;2023-08-06T04:37:48;4.13;;;3.73;;
12163;SDS011;6145;50.192;10.064;2023-08-06T04:40:37;3.53;;;3.23;;
12163;SDS011;6145;50.192;10.064;2023-08-06T04:43:17;3.73;;;3.00;;
12163;SDS011;6145;50.192;10.064;2023-08-06T04:53:08;4.30;;;3.90;;
12163;SDS011;6145;50.192;10.064;2023-08-06T04:55:35;3.97;;;3.67;;
12163;SDS011;6145;50.192;10.064;2023-08-06T04:58:02;3.03;;;2.83;;
12163;SDS011;6145;50.192;10.064;2023-08-06T05:00:32;3.83;;;3.00;;
12163;SDS011;6145;50.192;10.064;2023-08-06T05:03:00;3.30;;;3.00;;
12163;SDS011;6145;50.192;10.064;2023-08-06T05:05:27;4.10;;;3.60;;
12163;SDS011;6145;50.192;10.064;2023-08-06T05:08:07;3.40;;;2.93;;
12163;SDS011;6145;50.192;10.064;2023-08-06T05:10:43;3.20;;;2.90;;
12163;SDS011;6145;50.192;10.064;2023-08-06T05:13:21;4.23;;;3.70;;
12163;SDS011;6145;50.192;10.064;2023-08-06T05:15:53;4.40;;;3.43;;
12163;SDS011;6145;50.192;10.064;2023-08-06T05:18:39;3.67;;;3.37;;
12163;SDS011;6145;50.192;10.064;2023-08-06T05:21:12;4.10;;;3.70;;
12163;SDS011;6145;50.192;10.064;2023-08-06T05:23:52;5.30;;;3.20;;
12163;SDS011;6145;50.192;10.064;2023-08-06T05:26:19;3.43;;;3.13;;
12163;SDS011;6145;50.192;10.064;2023-08-06T05:28:48;4.13;;;3.30;;
12163;SDS011;6145;50.192;10.064;2023-08-06T05:31:14;3.47;;;3.13;;
12163;SDS011;6145;50.192;10.064;2023-08-06T05:33:47;4.07;;;3.20;;
12163;SDS011;6145;50.192;10.064;2023-08-06T05:36:14;4.40;;;3.03;;
12163;SDS011;6145;50.192;10.064;2023-08-06T05:38:43;2.77;;;2.57;;
12163;SDS011;6145;50.192;10.064;2023-08-06T05:41:13;2.73;;;2.53;;
12163;SDS011;6145;50.192;10.064;2023-08-06T05:43:40;3.97;;;3.00;;
12163;SDS011;6145;50.192;10.064;2023-08-06T05:46:07;3.83;;;2.97;;
12163;SDS011;6145;50.192;10.064;2023-08-06T05:48:36;3.20;;;2.90;;
12163;SDS011;6145;50.192;10.064;2023-08-06T05:51:03;4.27;;;2.73;;
12163;SDS011;6145;50.192;10.064;2023-08-06T05:53:33;3.90;;;2.50;;
12163;SDS011;6145;50.192;10.064;2023-08-06T05:56:00;3.63;;;2.83;;
12163;SDS011;6145;50.192;10.064;2023-08-06T08:50:52;1.30;;;1.20;;
12163;SDS011;6145;50.192;10.064;2023-08-06T08:53:19;2.97;;;1.53;;
12163;SDS011;6145;50.192;10.064;2023-08-06T08:55:55;1.87;;;1.57;;
12163;SDS011;6145;50.192;10.064;2023-08-06T08:58:22;1.43;;;1.27;;
12163;SDS011;6145;50.192;10.064;2023-08-06T09:00:49;1.80;;;1.50;;
12163;SDS011;6145;50.192;10.064;2023-08-06T09:03:17;1.30;;;1.20;;
12163;SDS011;6145;50.192;10.064;2023-08-06T09:05:44;2.77;;;1.40;;
12163;SDS011;6145;50.192;10.064;2023-08-06T09:08:18;0.80;;;0.80;;
12163;SDS011;6145;50.192;10.064;2023-08-06T09:10:47;1.70;;;1.10;;
12163;SDS011;6145;50.192;10.064;2023-08-06T09:13:17;1.37;;;1.00;;
12163;SDS011;6145;50.192;10.064;2023-08-06T09:15:45;0.80;;;0.80;;
12163;SDS011;6145;50.192;10.064;2023-08-06T09:18:12;1.07;;;1.00;;
12163;SDS011;6145;50.192;10.064;2023-08-06T09:20:42;1.10;;;1.00;;
12163;SDS011;6145;50.192;10.064;2023-08-06T09:23:15;0.70;;;0.70;;
12163;SDS011;6145;50.192;10.064;2023-08-06T09:25:47;0.63;;;0.63;;
12163;SDS011;6145;50.192;10.064;2023-08-06T09:28:13;0.50;;;0.50;;
12163;SDS011;6145;50.192;10.064;2023-08-06T09:30:47;2.60;;;0.80;;
12163;SDS011;6145;50.192;10.064;2023-08-06T09:33:14;0.47;;;0.47;;
12163;SDS011;6145;50.192;10.064;2023-08-06T09:35:45;0.90;;;0.90;;
12163;SDS011;6145;50.192;10.064;2023-08-06T09:38:15;1.33;;;0.87;;
12163;SDS011;6145;50.192;10.064;2023-08-06T09:40:44;0.60;;;0.60;;
12163;SDS011;6145;50.192;10.064;2023-08-06T09:43:11;0.80;;;0.80;;
12163;SDS011;6145;50.192;10.064;2023-08-06T09:45:39;0.63;;;0.63;;
12163;SDS011;6145;50.192;10.064;2023-08-06T09:48:06;1.43;;;0.50;;
12163;SDS011;6145;50.192;10.064;2023-08-06T09:50:36;1.43;;;0.73;;
12163;SDS011;6145;50.192;10.064;2023-08-06T09:53:05;0.67;;;0.67;;
12163;SDS011;6145;50.192;10.064;2023-08-06T09:55:37;0.77;;;0.77;;
12163;SDS011;6145;50.192;10.064;2023-08-06T09:58:05;0.40;;;0.40;;
12163;SDS011;6145;50.192;10.064;2023-08-06T10:00:33;0.60;;;0.60;;
12163;SDS011;6145;50.192;10.064;2023-08-06T10:03:00;0.70;;;0.70;;
12163;SDS011;6145;50.192;10.064;2023-08-06T10:05:27;0.30;;;0.30;;
12163;SDS011;6145;50.192;10.064;2023-08-06T10:07:55;0.60;;;0.60;;
12163;SDS011;6145;50.192;10.064;2023-08-06T10:10:23;0.97;;;0.70;;
12163;SDS011;6145;50.192;10.064;2023-08-06T10:12:52;0.80;;;0.80;;
12163;SDS011;6145;50.192;10.064;2023-08-06T10:15:25;2.20;;;0.80;;
12163;SDS011;6145;50.192;10.064;2023-08-06T10:17:54;2.53;;;0.90;;
12163;SDS011;6145;50.192;10.064;2023-08-06T10:20:24;0.50;;;0.50;;
12163;SDS011;6145;50.192;10.064;2023-08-06T10:23:05;0.60;;;0.60;;
12163;SDS011;6145;50.192;10.064;2023-08-06T10:26:06;0.60;;;0.50;;
12163;SDS011;6145;50.192;10.064;2023-08-06T13:28:26;1.00;;;1.00;;
12163;SDS011;6145;50.192;10.064;2023-08-06T13:30:53;0.68;;;0.68;;
12163;SDS011;6145;50.192;10.064;2023-08-06T13:33:20;1.17;;;0.70;;
12163;SDS011;6145;50.192;10.064;2023-08-06T13:35:47;0.60;;;0.60;;
12163;SDS011;6145;50.192;10.064;2023-08-06T13:38:16;0.50;;;0.50;;
12163;SDS011;6145;50.192;10.064;2023-08-06T13:43:37;1.23;;;0.80;;
12163;SDS011;6145;50.192;10.064;2023-08-06T13:46:03;0.65;;;0.65;;
12163;SDS011;6145;50.192;10.064;2023-08-06T13:48:30;0.47;;;0.45;;
12163;SDS011;6145;50.192;10.064;2023-08-06T13:50:57;0.70;;;0.70;;
12163;SDS011;6145;50.192;10.064;2023-08-06T13:53:24;1.33;;;0.90;;
12163;SDS011;6145;50.192;10.064;2023-08-06T13:55:55;0.40;;;0.40;;
12163;SDS011;6145;50.192;10.064;2023-08-06T13:58:22;1.23;;;0.70;;
12163;SDS011;6145;50.192;10.064;2023-08-06T14:00:52;2.15;;;1.17;;
12163;SDS011;6145;50.192;10.064;2023-08-06T14:03:19;2.50;;;1.05;;
12163;SDS011;6145;50.192;10.064;2023-08-06T14:05:50;3.57;;;1.00;;
12163;SDS011;6145;50.192;10.064;2023-08-06T14:12:12;1.33;;;0.70;;
12163;SDS011;6145;50.192;10.064;2023-08-06T14:14:48;0.23;;;0.23;;
